createdAt,value
2023-03-19T00:02:16.521Z,9.86
2023-03-19T00:04:43.767Z,10.02
2023-03-19T00:07:11.222Z,10.02
2023-03-19T00:09:38.120Z,9.98
2023-03-19T00:12:05.358Z,9.96
2023-03-19T00:14:31.960Z,9.94
2023-03-19T00:16:58.722Z,9.90
2023-03-19T00:19:25.430Z,9.94
2023-03-19T00:21:52.263Z,9.92
2023-03-19T00:24:18.922Z,9.72
2023-03-19T00:26:45.568Z,9.84
2023-03-19T00:29:12.845Z,9.67
2023-03-19T00:31:40.772Z,9.71
2023-03-19T00:34:08.518Z,9.67
2023-03-19T00:36:35.776Z,9.73
2023-03-19T00:39:03.083Z,9.73
2023-03-19T00:41:29.844Z,9.64
2023-03-19T00:43:58.010Z,9.73
2023-03-19T00:46:25.734Z,9.74
2023-03-19T00:48:55.540Z,9.76
2023-03-19T00:51:23.509Z,9.79
2023-03-19T00:53:51.626Z,9.78
2023-03-19T00:56:19.269Z,9.79
2023-03-19T00:58:47.105Z,9.75
2023-03-19T01:01:16.449Z,9.73
2023-03-19T01:03:44.689Z,9.72
2023-03-19T01:06:12.217Z,9.68
2023-03-19T01:08:38.864Z,9.66
2023-03-19T01:11:11.912Z,9.66
2023-03-19T01:13:39.787Z,9.70
2023-03-19T01:16:07.155Z,9.60
2023-03-19T01:18:33.950Z,9.63
2023-03-19T01:21:01.360Z,9.66
2023-03-19T01:23:30.807Z,9.72
2023-03-19T01:25:58.271Z,9.72
2023-03-19T01:28:26.788Z,9.75
2023-03-19T01:30:53.416Z,9.79
2023-03-19T01:33:42.796Z,9.74
2023-03-19T01:36:28.110Z,9.79
2023-03-19T01:39:01.829Z,9.78
2023-03-19T01:41:28.596Z,9.72
2023-03-19T01:44:01.693Z,9.70
2023-03-19T01:46:38.719Z,9.77
2023-03-19T01:49:34.877Z,9.90
2023-03-19T01:52:18.200Z,10.11
2023-03-19T01:55:09.362Z,10.11
2023-03-19T01:57:54.777Z,10.17
2023-03-19T02:00:59.888Z,10.21
2023-03-19T02:03:27.510Z,10.22
2023-03-19T02:06:03.036Z,10.20
2023-03-19T02:08:31.277Z,10.10
2023-03-19T02:11:00.357Z,10.13
2023-03-19T02:13:27.953Z,10.13
2023-03-19T02:15:55.366Z,10.14
2023-03-19T02:18:23.988Z,10.14
2023-03-19T02:21:05.730Z,10.15
2023-03-19T02:23:58.243Z,10.18
2023-03-19T02:26:43.189Z,10.15
2023-03-19T02:29:10.203Z,10.04
2023-03-19T02:31:37.201Z,9.98
2023-03-19T02:34:06.754Z,10.00
2023-03-19T02:36:37.858Z,10.06
2023-03-19T02:39:07.270Z,10.09
2023-03-19T02:41:35.361Z,10.12
2023-03-19T02:44:04.629Z,10.12
2023-03-19T02:46:31.920Z,10.21
2023-03-19T02:48:59.090Z,10.25
2023-03-19T02:51:25.797Z,10.20
2023-03-19T02:53:52.400Z,10.14
2023-03-19T02:56:19.025Z,10.18
2023-03-19T02:58:45.847Z,10.20
2023-03-19T03:01:13.226Z,10.21
2023-03-19T03:03:39.841Z,10.22
2023-03-19T03:06:07.147Z,10.08
2023-03-19T03:08:33.812Z,10.03
2023-03-19T03:11:00.354Z,10.04
2023-03-19T03:13:27.997Z,9.95
2023-03-19T03:15:54.611Z,9.86
2023-03-19T03:18:21.248Z,9.86
2023-03-19T03:20:48.246Z,9.82
2023-03-19T03:23:14.957Z,9.81
2023-03-19T03:25:41.770Z,9.74
2023-03-19T03:28:08.901Z,9.71
2023-03-19T03:30:35.826Z,9.72
2023-03-19T03:33:02.979Z,9.75
2023-03-19T03:35:29.690Z,9.81
2023-03-19T03:37:56.455Z,9.66
2023-03-19T03:40:23.107Z,9.66
2023-03-19T03:42:50.252Z,9.57
2023-03-19T03:45:17.295Z,9.51
2023-03-19T03:47:45.617Z,9.49
2023-03-19T03:50:12.804Z,9.65
2023-03-19T03:52:41.106Z,9.64
2023-03-19T03:55:08.960Z,9.66
2023-03-19T03:57:38.982Z,9.56
2023-03-19T04:00:06.216Z,9.46
2023-03-19T04:02:40.210Z,9.33
2023-03-19T04:05:08.130Z,9.19
2023-03-19T04:07:34.821Z,9.03
2023-03-19T04:10:02.270Z,8.78
2023-03-19T04:12:29.464Z,8.58
2023-03-19T04:14:56.527Z,8.58
2023-03-19T04:17:23.747Z,8.55
2023-03-19T04:19:51.175Z,8.41
2023-03-19T04:22:17.801Z,8.29
2023-03-19T04:24:44.894Z,8.22
2023-03-19T04:27:11.667Z,8.12
2023-03-19T04:29:39.167Z,8.13
2023-03-19T04:32:06.703Z,8.05
2023-03-19T04:34:33.703Z,8.04
2023-03-19T04:37:00.414Z,7.99
2023-03-19T04:39:30.357Z,7.98
2023-03-19T04:41:57.711Z,7.89
2023-03-19T04:44:33.354Z,7.90
2023-03-19T04:47:01.919Z,8.05
2023-03-19T04:49:34.802Z,8.12
2023-03-19T04:52:01.709Z,8.26
2023-03-19T04:54:28.723Z,8.27
2023-03-19T04:56:56.664Z,8.19
2023-03-19T04:59:26.228Z,8.14
2023-03-19T05:01:53.655Z,8.13
2023-03-19T05:04:24.057Z,8.08
2023-03-19T05:06:54.953Z,8.07
2023-03-19T05:09:21.614Z,8.03
2023-03-19T05:11:48.228Z,8.00
2023-03-19T05:14:19.033Z,8.09
2023-03-19T05:17:23.771Z,8.09
2023-03-19T05:20:01.693Z,8.25
2023-03-19T05:22:29.847Z,8.24
2023-03-19T05:24:58.000Z,8.19
2023-03-19T05:27:26.020Z,8.36
2023-03-19T05:30:01.524Z,8.33
2023-03-19T05:32:47.467Z,8.33
2023-03-19T05:35:24.858Z,8.38
2023-03-19T05:37:52.092Z,8.40
2023-03-19T05:40:19.132Z,8.31
2023-03-19T05:42:46.722Z,8.44
2023-03-19T05:45:17.337Z,8.54
2023-03-19T05:47:49.195Z,8.43
2023-03-19T05:50:20.180Z,8.37
2023-03-19T05:53:13.124Z,8.40
2023-03-19T05:55:45.232Z,8.42
2023-03-19T05:58:11.888Z,8.52
2023-03-19T06:00:38.750Z,8.57
2023-03-19T06:03:05.787Z,8.63
2023-03-19T06:05:50.885Z,8.61
2023-03-19T06:08:34.897Z,8.54
2023-03-19T06:11:13.057Z,8.70
2023-03-19T06:13:39.916Z,8.86
2023-03-19T06:16:07.972Z,9.01
2023-03-19T06:18:38.420Z,9.10
2023-03-19T06:21:09.448Z,9.17
2023-03-19T06:23:36.129Z,9.28
2023-03-19T06:26:06.258Z,9.36
2023-03-19T06:28:41.057Z,9.44
2023-03-19T06:31:08.281Z,9.53
2023-03-19T06:33:57.779Z,9.57
2023-03-19T06:36:30.383Z,9.67
2023-03-19T06:38:57.217Z,9.78
2023-03-19T06:41:25.206Z,9.73
2023-03-19T06:43:53.564Z,9.77
2023-03-19T06:46:20.140Z,9.87
2023-03-19T06:48:47.001Z,9.78
2023-03-19T06:51:13.625Z,9.82
2023-03-19T06:53:40.235Z,9.90
2023-03-19T06:56:06.938Z,9.96
2023-03-19T06:58:35.398Z,10.02
2023-03-19T07:01:02.803Z,9.93
2023-03-19T07:03:29.460Z,10.02
2023-03-19T07:05:56.052Z,10.10
2023-03-19T07:08:23.099Z,10.15
2023-03-19T07:10:49.673Z,10.24
2023-03-19T07:13:16.299Z,10.33
2023-03-19T07:15:42.826Z,10.45
2023-03-19T07:18:09.587Z,10.55
2023-03-19T07:20:36.795Z,10.63
2023-03-19T07:23:03.700Z,10.66
2023-03-19T07:25:30.347Z,10.82
2023-03-19T07:27:56.920Z,10.84
2023-03-19T07:30:24.385Z,10.85
2023-03-19T07:32:51.249Z,10.90
2023-03-19T07:35:18.041Z,11.09
2023-03-19T07:37:44.646Z,10.96
2023-03-19T07:40:11.659Z,10.93
2023-03-19T07:42:38.548Z,11.07
2023-03-19T07:45:06.155Z,11.06
2023-03-19T07:47:33.093Z,11.07
2023-03-19T07:49:59.974Z,11.14
2023-03-19T07:52:26.885Z,11.13
2023-03-19T07:54:53.960Z,11.28
2023-03-19T07:57:21.100Z,11.21
2023-03-19T07:59:47.684Z,11.19
2023-03-19T08:02:15.013Z,11.38
2023-03-19T08:04:42.165Z,11.28
2023-03-19T08:07:11.251Z,11.36
2023-03-19T08:09:38.621Z,11.37
2023-03-19T08:12:06.697Z,11.30
2023-03-19T08:14:34.003Z,11.44
2023-03-19T08:17:00.858Z,11.33
2023-03-19T08:19:28.247Z,11.35
2023-03-19T08:21:54.848Z,11.28
2023-03-19T08:24:29.859Z,11.27
2023-03-19T08:26:56.507Z,11.47
2023-03-19T08:29:23.206Z,11.58
2023-03-19T08:31:49.815Z,11.33
2023-03-19T08:34:16.484Z,11.41
2023-03-19T08:36:43.175Z,11.29
2023-03-19T08:39:09.973Z,11.23
2023-03-19T08:41:36.558Z,11.24
2023-03-19T08:44:03.672Z,11.18
2023-03-19T08:46:31.183Z,11.12
2023-03-19T08:48:57.813Z,11.17
2023-03-19T08:51:26.117Z,11.33
2023-03-19T08:53:53.511Z,11.36
2023-03-19T08:56:20.780Z,11.76
2023-03-19T08:58:48.041Z,12.05
2023-03-19T09:01:15.118Z,11.94
2023-03-19T09:03:43.526Z,12.03
2023-03-19T09:06:11.981Z,12.03
2023-03-19T09:08:38.928Z,12.08
2023-03-19T09:11:06.741Z,11.94
2023-03-19T09:13:34.035Z,12.31
2023-03-19T09:16:01.599Z,12.37
2023-03-19T09:18:28.362Z,12.38
2023-03-19T09:20:55.235Z,12.73
2023-03-19T09:23:22.311Z,12.59
2023-03-19T09:25:49.628Z,12.69
2023-03-19T09:28:16.553Z,12.38
2023-03-19T09:30:46.275Z,12.51
2023-03-19T09:33:12.922Z,12.55
2023-03-19T09:35:39.914Z,12.50
2023-03-19T09:38:07.111Z,12.50
2023-03-19T09:40:49.487Z,12.71
2023-03-19T09:43:45.645Z,12.36
2023-03-19T09:46:18.717Z,12.23
2023-03-19T09:48:50.704Z,12.08
2023-03-19T09:51:30.307Z,12.31
2023-03-19T09:54:01.975Z,12.42
2023-03-19T09:56:28.749Z,12.23
2023-03-19T09:58:55.469Z,12.41
2023-03-19T10:01:28.804Z,12.27
2023-03-19T10:04:33.491Z,12.56
2023-03-19T10:07:14.297Z,12.98
2023-03-19T10:09:55.683Z,13.12
2023-03-19T10:12:48.549Z,13.19
2023-03-19T10:15:22.256Z,13.47
2023-03-19T10:18:01.153Z,13.94
2023-03-19T10:20:43.198Z,13.73
2023-03-19T10:23:18.778Z,14.09
2023-03-19T10:25:46.035Z,14.47
2023-03-19T10:28:18.787Z,14.25
2023-03-19T10:30:57.742Z,13.66
2023-03-19T10:33:30.159Z,13.89
2023-03-19T10:36:02.120Z,13.93
2023-03-19T10:38:29.473Z,14.09
2023-03-19T10:41:21.121Z,14.28
2023-03-19T10:43:54.571Z,14.16
2023-03-19T10:46:21.988Z,14.22
2023-03-19T10:48:49.380Z,13.78
2023-03-19T10:51:26.756Z,13.85
2023-03-19T10:53:55.636Z,14.00
2023-03-19T10:56:34.178Z,13.61
2023-03-19T10:59:05.769Z,13.88
2023-03-19T11:01:38.681Z,14.32
2023-03-19T11:04:17.328Z,14.16
2023-03-19T11:06:49.499Z,13.70
2023-03-19T11:09:31.543Z,14.04
2023-03-19T11:11:59.468Z,13.73
2023-03-19T11:14:39.615Z,14.14
2023-03-19T11:17:17.411Z,14.26
2023-03-19T11:19:52.334Z,14.71
2023-03-19T11:22:23.625Z,14.19
2023-03-19T11:25:00.047Z,14.64
2023-03-19T11:27:35.169Z,14.71
2023-03-19T11:30:05.164Z,14.45
2023-03-19T11:32:55.456Z,14.55
2023-03-19T11:35:28.763Z,14.19
2023-03-19T11:37:58.039Z,14.32
2023-03-19T11:40:59.773Z,14.02
2023-03-19T11:43:32.708Z,13.98
2023-03-19T11:45:59.406Z,13.90
2023-03-19T11:48:53.865Z,13.55
2023-03-19T11:51:28.838Z,13.16
2023-03-19T11:54:11.571Z,13.06
2023-03-19T11:56:55.718Z,12.35
2023-03-19T11:59:25.814Z,12.05
2023-03-19T12:02:20.355Z,11.74
2023-03-19T12:04:49.693Z,11.77
2023-03-19T12:07:37.700Z,11.56
2023-03-19T12:10:20.860Z,11.50
2023-03-19T12:12:56.883Z,11.39
2023-03-19T12:15:34.418Z,11.17
2023-03-19T12:18:29.525Z,11.33
2023-03-19T12:21:23.837Z,11.44
2023-03-19T12:24:12.718Z,11.42
2023-03-19T12:26:52.694Z,11.48
2023-03-19T12:29:32.833Z,11.50
2023-03-19T12:32:32.592Z,11.58
2023-03-19T12:35:04.714Z,11.30
2023-03-19T12:37:38.559Z,11.65
2023-03-19T12:40:17.430Z,11.10
2023-03-19T12:42:44.275Z,11.37
2023-03-19T12:45:28.276Z,11.31
2023-03-19T12:48:02.473Z,11.35
2023-03-19T12:50:32.243Z,11.83
2023-03-19T12:53:01.978Z,11.92
2023-03-19T12:55:43.002Z,12.22
2023-03-19T12:58:17.934Z,12.08
2023-03-19T13:00:50.682Z,12.08
2023-03-19T13:03:37.829Z,11.73
2023-03-19T13:06:15.928Z,11.92
2023-03-19T13:08:49.332Z,12.00
2023-03-19T13:11:35.010Z,12.19
2023-03-19T13:14:13.868Z,12.20
2023-03-19T13:16:51.367Z,12.13
2023-03-19T13:19:39.881Z,12.54
2023-03-19T13:22:11.876Z,12.60
2023-03-19T13:24:41.228Z,12.07
2023-03-19T13:27:13.780Z,12.27
2023-03-19T13:29:55.961Z,12.50
2023-03-19T13:32:35.956Z,12.57
2023-03-19T13:35:39.003Z,12.78
2023-03-19T13:38:15.620Z,12.80
2023-03-19T13:40:53.828Z,12.62
2023-03-19T13:43:28.662Z,13.36
2023-03-19T13:46:12.274Z,14.09
2023-03-19T13:48:45.408Z,13.96
2023-03-19T13:51:18.173Z,13.96
2023-03-19T13:54:13.118Z,13.68
2023-03-19T13:57:01.572Z,13.22
2023-03-19T13:59:31.256Z,13.29
2023-03-19T14:01:59.433Z,13.04
2023-03-19T14:04:33.316Z,13.17
2023-03-19T14:07:17.045Z,13.28
2023-03-19T14:09:45.851Z,13.55
2023-03-19T14:12:23.408Z,13.67
2023-03-19T14:14:58.375Z,13.71
2023-03-19T14:17:26.077Z,13.49
2023-03-19T14:19:54.303Z,14.24
2023-03-19T14:22:38.038Z,14.16
2023-03-19T14:25:15.173Z,13.35
2023-03-19T14:27:48.139Z,13.50
2023-03-19T14:30:36.667Z,13.71
2023-03-19T14:33:08.261Z,13.57
2023-03-19T14:35:44.116Z,13.54
2023-03-19T14:38:44.052Z,13.28
2023-03-19T14:41:17.228Z,13.14
2023-03-19T14:44:15.679Z,13.43
2023-03-19T14:47:04.329Z,13.41
2023-03-19T14:49:49.562Z,13.48
2023-03-19T14:52:28.555Z,13.29
2023-03-19T14:54:59.770Z,13.04
2023-03-19T14:57:34.670Z,13.06
2023-03-19T15:00:06.658Z,13.00
2023-03-19T15:02:52.850Z,13.02
2023-03-19T15:05:27.269Z,13.17
2023-03-19T15:08:07.168Z,13.64
2023-03-19T15:11:07.182Z,13.56
2023-03-19T15:14:14.305Z,14.15
2023-03-19T15:16:59.694Z,14.13
2023-03-19T15:19:29.975Z,14.40
2023-03-19T15:22:15.039Z,13.69
2023-03-19T15:24:42.945Z,13.43
2023-03-19T15:27:24.829Z,13.66
2023-03-19T15:29:53.462Z,13.64
2023-03-19T15:32:49.671Z,13.64
2023-03-19T15:35:23.098Z,13.69
2023-03-19T15:37:54.608Z,13.94
2023-03-19T15:40:25.539Z,13.92
2023-03-19T15:42:53.017Z,14.05
2023-03-19T15:45:23.337Z,13.90
2023-03-19T15:48:17.157Z,13.89
2023-03-19T15:50:46.701Z,13.56
2023-03-19T15:53:21.262Z,13.67
2023-03-19T15:55:50.166Z,13.53
2023-03-19T15:58:21.573Z,13.61
2023-03-19T16:00:48.734Z,13.80
2023-03-19T16:03:22.226Z,13.64
2023-03-19T16:06:00.663Z,13.64
2023-03-19T16:08:28.786Z,13.43
2023-03-19T16:10:55.835Z,13.39
2023-03-19T16:13:28.910Z,13.53
2023-03-19T16:15:59.793Z,13.51
2023-03-19T16:18:28.353Z,13.28
2023-03-19T16:21:01.008Z,13.18
2023-03-19T16:23:41.516Z,13.53
2023-03-19T16:26:21.708Z,13.31
2023-03-19T16:28:58.153Z,13.66
2023-03-19T16:31:36.507Z,13.41
2023-03-19T16:34:03.257Z,13.33
2023-03-19T16:36:32.722Z,13.40
2023-03-19T16:39:25.424Z,13.28
2023-03-19T16:42:11.013Z,13.37
2023-03-19T16:44:47.160Z,13.24
2023-03-19T16:47:15.943Z,13.13
2023-03-19T16:49:42.738Z,13.05
2023-03-19T16:52:20.163Z,13.09
2023-03-19T16:54:47.228Z,12.80
2023-03-19T16:57:15.975Z,12.75
2023-03-19T16:59:43.303Z,12.71
2023-03-19T17:02:14.679Z,12.67
2023-03-19T17:04:41.988Z,12.41
2023-03-19T17:07:09.911Z,12.50
2023-03-19T17:09:37.085Z,12.31
2023-03-19T17:12:06.438Z,12.25
2023-03-19T17:14:33.949Z,12.11
2023-03-19T17:17:00.951Z,12.08
2023-03-19T17:19:33.678Z,12.01
2023-03-19T17:22:00.504Z,12.14
2023-03-19T17:24:33.163Z,12.11
2023-03-19T17:27:02.685Z,11.92
2023-03-19T17:29:31.300Z,11.91
2023-03-19T17:32:01.932Z,11.88
2023-03-19T17:34:33.343Z,11.88
2023-03-19T17:37:01.822Z,11.84
2023-03-19T17:39:33.913Z,11.76
2023-03-19T17:42:00.525Z,11.72
2023-03-19T17:44:28.100Z,11.62
2023-03-19T17:46:56.060Z,11.58
2023-03-19T17:49:29.132Z,11.42
2023-03-19T17:51:56.828Z,11.35
2023-03-19T17:54:25.821Z,11.24
2023-03-19T17:56:53.297Z,11.21
2023-03-19T17:59:19.990Z,11.13
2023-03-19T18:01:49.961Z,11.08
2023-03-19T18:04:19.581Z,11.04
2023-03-19T18:06:50.221Z,10.99
2023-03-19T18:09:24.151Z,10.97
2023-03-19T18:11:50.646Z,10.99
2023-03-19T18:14:17.363Z,10.77
2023-03-19T18:16:44.737Z,10.71
2023-03-19T18:19:35.336Z,10.64
2023-03-19T18:22:02.378Z,10.59
2023-03-19T18:24:28.926Z,10.46
2023-03-19T18:26:55.800Z,10.27
2023-03-19T18:29:22.425Z,10.32
2023-03-19T18:31:50.708Z,10.18
2023-03-19T18:34:17.736Z,9.97
2023-03-19T18:36:44.420Z,10.08
2023-03-19T18:39:14.094Z,10.10
2023-03-19T18:41:41.424Z,10.17
2023-03-19T18:44:09.392Z,10.14
2023-03-19T18:46:38.547Z,10.20
2023-03-19T18:49:23.201Z,10.16
2023-03-19T18:52:02.169Z,10.22
2023-03-19T18:54:30.959Z,10.07
2023-03-19T18:56:59.595Z,9.99
2023-03-19T18:59:28.584Z,9.94
2023-03-19T19:02:03.199Z,10.03
2023-03-19T19:04:30.213Z,9.92
2023-03-19T19:06:56.994Z,9.97
2023-03-19T19:09:23.644Z,9.83
2023-03-19T19:11:50.540Z,9.83
2023-03-19T19:14:23.342Z,9.84
2023-03-19T19:16:51.357Z,9.81
2023-03-19T19:19:22.665Z,9.82
2023-03-19T19:21:53.023Z,9.85
2023-03-19T19:24:20.429Z,9.90
2023-03-19T19:26:51.585Z,9.84
2023-03-19T19:29:24.214Z,9.87
2023-03-19T19:31:50.870Z,9.90
2023-03-19T19:34:17.859Z,9.86
2023-03-19T19:36:44.584Z,10.03
2023-03-19T19:39:11.243Z,9.99
2023-03-19T19:41:39.430Z,10.09
2023-03-19T19:44:06.963Z,10.04
2023-03-19T19:46:33.688Z,10.14
2023-03-19T19:49:00.415Z,10.14
2023-03-19T19:51:28.961Z,10.08
2023-03-19T19:53:55.906Z,10.00
2023-03-19T19:56:25.141Z,9.98
2023-03-19T19:58:54.161Z,9.99
2023-03-19T20:01:24.109Z,10.02
2023-03-19T20:03:52.082Z,10.17
2023-03-19T20:06:19.924Z,10.14
2023-03-19T20:08:49.907Z,10.13
2023-03-19T20:11:22.683Z,10.15
2023-03-19T20:13:54.304Z,10.19
2023-03-19T20:16:23.725Z,10.26
2023-03-19T20:18:53.603Z,10.24
2023-03-19T20:21:21.649Z,10.24
2023-03-19T20:23:51.145Z,10.20
2023-03-19T20:26:20.969Z,10.18
2023-03-19T20:28:48.424Z,10.13
2023-03-19T20:31:25.033Z,10.15
2023-03-19T20:33:51.904Z,10.15
2023-03-19T20:36:19.612Z,10.26
2023-03-19T20:38:46.470Z,10.23
2023-03-19T20:41:20.346Z,10.24
2023-03-19T20:43:47.301Z,10.14
2023-03-19T20:46:15.303Z,10.08
2023-03-19T20:48:41.890Z,10.06
2023-03-19T20:51:18.108Z,10.04
2023-03-19T20:53:44.746Z,10.04
2023-03-19T20:56:16.066Z,10.02
2023-03-19T20:58:42.653Z,10.00
2023-03-19T21:01:10.770Z,9.98
2023-03-19T21:03:38.244Z,9.92
2023-03-19T21:06:10.521Z,9.96
2023-03-19T21:08:42.436Z,9.92
2023-03-19T21:11:19.971Z,9.90
2023-03-19T21:13:52.645Z,9.91
2023-03-19T21:16:24.507Z,9.86
2023-03-19T21:18:51.980Z,9.84
2023-03-19T21:21:28.010Z,9.85
2023-03-19T21:24:04.082Z,9.84
2023-03-19T21:26:30.987Z,9.83
2023-03-19T21:29:05.694Z,9.83
2023-03-19T21:31:32.282Z,9.85
2023-03-19T21:33:58.954Z,9.83
2023-03-19T21:36:25.663Z,9.85
2023-03-19T21:38:52.590Z,9.84
2023-03-19T21:41:25.011Z,9.87
2023-03-19T21:43:57.358Z,9.86
2023-03-19T21:46:26.547Z,9.86
2023-03-19T21:48:54.739Z,9.84
2023-03-19T21:51:22.594Z,9.86
2023-03-19T21:53:49.607Z,9.88
2023-03-19T21:56:32.737Z,9.83
2023-03-19T21:59:06.824Z,9.81
2023-03-19T22:01:33.945Z,9.81
2023-03-19T22:04:00.526Z,9.82
2023-03-19T22:06:28.112Z,9.81
2023-03-19T22:08:55.001Z,9.80
2023-03-19T22:11:30.447Z,9.78
2023-03-19T22:14:06.407Z,9.77
2023-03-19T22:16:33.635Z,9.82
2023-03-19T22:19:01.528Z,9.83
2023-03-19T22:21:30.636Z,9.82
2023-03-19T22:23:57.262Z,9.87
2023-03-19T22:26:27.279Z,9.82
2023-03-19T22:28:56.140Z,9.83
2023-03-19T22:31:23.172Z,9.78
2023-03-19T22:33:50.043Z,9.82
2023-03-19T22:36:16.752Z,9.79
2023-03-19T22:38:47.088Z,9.75
2023-03-19T22:41:36.716Z,9.68
2023-03-19T22:44:08.010Z,9.64
2023-03-19T22:46:35.446Z,9.63
2023-03-19T22:49:02.531Z,9.62
2023-03-19T22:51:30.011Z,9.55
2023-03-19T22:53:56.653Z,9.55
2023-03-19T22:56:23.529Z,9.55
2023-03-19T22:58:50.738Z,9.55
2023-03-19T23:01:20.656Z,9.55
2023-03-19T23:03:48.587Z,9.51
2023-03-19T23:06:30.764Z,9.47
2023-03-19T23:08:58.429Z,9.45
2023-03-19T23:11:25.125Z,9.51
2023-03-19T23:13:52.112Z,9.51
2023-03-19T23:16:22.259Z,9.55
2023-03-19T23:18:49.794Z,9.57
2023-03-19T23:21:18.068Z,9.62
2023-03-19T23:23:45.406Z,9.67
2023-03-19T23:26:30.887Z,9.67
2023-03-19T23:29:03.720Z,9.68
2023-03-19T23:31:30.374Z,9.73
2023-03-19T23:33:57.116Z,9.73
2023-03-19T23:36:23.737Z,9.79
2023-03-19T23:38:51.819Z,9.73
2023-03-19T23:41:26.618Z,9.78
2023-03-19T23:43:53.929Z,9.78
2023-03-19T23:46:21.252Z,9.76
2023-03-19T23:48:47.957Z,9.80
2023-03-19T23:51:15.975Z,9.82
2023-03-19T23:53:43.412Z,9.81
2023-03-19T23:56:13.055Z,9.85
2023-03-19T23:58:43.261Z,9.83
